sensor_id;sensor_type;location;lat;lon;timestamp;temperature;humidity
81726;DHT22;71135;16.738;-14.648;2024-01-07T00:02:24;4.10;63.50
81726;DHT22;71135;16.738;-14.648;2024-01-07T00:04:57;4.10;63.50
81726;DHT22;71135;16.738;-14.648;2024-01-07T00:07:28;4.10;63.40
81726;DHT22;71135;16.738;-14.648;2024-01-07T00:09:57;4.10;63.50
81726;DHT22;71135;16.738;-14.648;2024-01-07T00:12:26;4.10;63.50
81726;DHT22;71135;16.738;-14.648;2024-01-07T00:15:00;4.20;63.50
81726;DHT22;71135;16.738;-14.648;2024-01-07T00:17:29;4.10;63.60
81726;DHT22;71135;16.738;-14.648;2024-01-07T00:19:58;4.20;63.50
81726;DHT22;71135;16.738;-14.648;2024-01-07T00:22:27;4.20;63.50
81726;DHT22;71135;16.738;-14.648;2024-01-07T00:24:57;4.10;63.50
81726;DHT22;71135;16.738;-14.648;2024-01-07T00:27:26;4.20;63.50
81726;DHT22;71135;16.738;-14.648;2024-01-07T00:29:58;4.20;63.50
81726;DHT22;71135;16.738;-14.648;2024-01-07T00:32:28;4.20;63.50
81726;DHT22;71135;16.738;-14.648;2024-01-07T00:34:57;4.10;63.60
81726;DHT22;71135;16.738;-14.648;2024-01-07T00:37:26;4.10;63.70
81726;DHT22;71135;16.738;-14.648;2024-01-07T00:39:56;4.10;63.60
81726;DHT22;71135;16.738;-14.648;2024-01-07T00:42:25;4.10;63.70
81726;DHT22;71135;16.738;-14.648;2024-01-07T00:44:54;4.10;63.80
81726;DHT22;71135;16.738;-14.648;2024-01-07T00:47:26;4.10;63.80
81726;DHT22;71135;16.738;-14.648;2024-01-07T00:49:55;4.10;63.80
81726;DHT22;71135;16.738;-14.648;2024-01-07T00:52:24;4.10;63.80
81726;DHT22;71135;16.738;-14.648;2024-01-07T00:54:54;4.10;63.90
81726;DHT22;71135;16.738;-14.648;2024-01-07T00:57:23;4.10;63.90
81726;DHT22;71135;16.738;-14.648;2024-01-07T00:59:52;4.10;63.90
81726;DHT22;71135;16.738;-14.648;2024-01-07T01:02:21;4.10;63.90
81726;DHT22;71135;16.738;-14.648;2024-01-07T01:04:53;4.10;63.90
81726;DHT22;71135;16.738;-14.648;2024-01-07T01:07:22;4.00;64.00
81726;DHT22;71135;16.738;-14.648;2024-01-07T01:09:52;4.00;63.90
81726;DHT22;71135;16.738;-14.648;2024-01-07T01:12:21;4.00;64.00
81726;DHT22;71135;16.738;-14.648;2024-01-07T01:14:50;4.00;64.00
81726;DHT22;71135;16.738;-14.648;2024-01-07T01:17:19;4.00;64.10
81726;DHT22;71135;16.738;-14.648;2024-01-07T01:19:52;4.00;64.00
81726;DHT22;71135;16.738;-14.648;2024-01-07T01:22:27;4.00;64.00
81726;DHT22;71135;16.738;-14.648;2024-01-07T01:24:59;4.00;64.00
81726;DHT22;71135;16.738;-14.648;2024-01-07T01:27:29;4.00;64.00
81726;DHT22;71135;16.738;-14.648;2024-01-07T01:29:59;4.00;64.00
81726;DHT22;71135;16.738;-14.648;2024-01-07T01:32:30;4.00;64.00
81726;DHT22;71135;16.738;-14.648;2024-01-07T01:35:02;4.00;64.00
81726;DHT22;71135;16.738;-14.648;2024-01-07T01:37:33;4.00;64.10
81726;DHT22;71135;16.738;-14.648;2024-01-07T01:40:03;3.90;64.10
81726;DHT22;71135;16.738;-14.648;2024-01-07T01:42:32;3.90;64.10
81726;DHT22;71135;16.738;-14.648;2024-01-07T01:45:16;3.90;64.10
81726;DHT22;71135;16.738;-14.648;2024-01-07T01:47:46;3.90;64.10
81726;DHT22;71135;16.738;-14.648;2024-01-07T01:50:20;3.90;64.20
81726;DHT22;71135;16.738;-14.648;2024-01-07T01:52:49;3.90;64.20
81726;DHT22;71135;16.738;-14.648;2024-01-07T01:55:19;3.90;64.20
81726;DHT22;71135;16.738;-14.648;2024-01-07T01:57:48;3.90;64.10
81726;DHT22;71135;16.738;-14.648;2024-01-07T02:00:18;3.90;64.00
81726;DHT22;71135;16.738;-14.648;2024-01-07T02:02:48;3.90;64.10
81726;DHT22;71135;16.738;-14.648;2024-01-07T02:05:20;3.90;64.10
81726;DHT22;71135;16.738;-14.648;2024-01-07T02:07:49;3.90;64.10
81726;DHT22;71135;16.738;-14.648;2024-01-07T02:10:19;3.90;64.10
81726;DHT22;71135;16.738;-14.648;2024-01-07T02:16:06;3.90;64.10
81726;DHT22;71135;16.738;-14.648;2024-01-07T02:18:35;3.80;64.00
81726;DHT22;71135;16.738;-14.648;2024-01-07T02:21:08;3.80;64.10
81726;DHT22;71135;16.738;-14.648;2024-01-07T02:23:37;3.80;64.20
81726;DHT22;71135;16.738;-14.648;2024-01-07T02:26:09;3.80;64.30
81726;DHT22;71135;16.738;-14.648;2024-01-07T02:28:38;3.90;64.20
81726;DHT22;71135;16.738;-14.648;2024-01-07T02:31:07;3.90;64.20
81726;DHT22;71135;16.738;-14.648;2024-01-07T02:33:36;3.90;64.10
81726;DHT22;71135;16.738;-14.648;2024-01-07T02:36:06;3.90;64.00
81726;DHT22;71135;16.738;-14.648;2024-01-07T02:38:35;3.90;64.10
81726;DHT22;71135;16.738;-14.648;2024-01-07T02:41:05;3.90;64.10
81726;DHT22;71135;16.738;-14.648;2024-01-07T02:43:36;3.90;64.10
81726;DHT22;71135;16.738;-14.648;2024-01-07T02:46:05;3.90;64.10
81726;DHT22;71135;16.738;-14.648;2024-01-07T02:48:35;3.90;64.10
81726;DHT22;71135;16.738;-14.648;2024-01-07T02:51:04;3.90;64.10
81726;DHT22;71135;16.738;-14.648;2024-01-07T02:53:33;3.80;64.10
81726;DHT22;71135;16.738;-14.648;2024-01-07T02:56:03;3.80;64.20
81726;DHT22;71135;16.738;-14.648;2024-01-07T02:58:37;3.80;64.20
81726;DHT22;71135;16.738;-14.648;2024-01-07T03:01:08;3.70;64.30
81726;DHT22;71135;16.738;-14.648;2024-01-07T03:03:38;3.70;64.30
81726;DHT22;71135;16.738;-14.648;2024-01-07T03:06:07;3.70;64.40
81726;DHT22;71135;16.738;-14.648;2024-01-07T03:08:37;3.70;64.40
81726;DHT22;71135;16.738;-14.648;2024-01-07T03:11:06;3.70;64.50
81726;DHT22;71135;16.738;-14.648;2024-01-07T03:13:38;3.70;64.50
81726;DHT22;71135;16.738;-14.648;2024-01-07T03:16:08;3.70;64.50
81726;DHT22;71135;16.738;-14.648;2024-01-07T03:18:47;3.70;64.60
81726;DHT22;71135;16.738;-14.648;2024-01-07T03:21:17;3.70;64.50
81726;DHT22;71135;16.738;-14.648;2024-01-07T03:23:47;3.70;64.50
81726;DHT22;71135;16.738;-14.648;2024-01-07T03:26:18;3.70;64.50
81726;DHT22;71135;16.738;-14.648;2024-01-07T03:28:50;3.70;64.60
81726;DHT22;71135;16.738;-14.648;2024-01-07T03:31:19;3.70;64.60
81726;DHT22;71135;16.738;-14.648;2024-01-07T03:33:49;3.70;64.70
81726;DHT22;71135;16.738;-14.648;2024-01-07T03:36:18;3.70;64.70
81726;DHT22;71135;16.738;-14.648;2024-01-07T03:38:50;3.70;64.70
81726;DHT22;71135;16.738;-14.648;2024-01-07T03:41:20;3.70;64.70
81726;DHT22;71135;16.738;-14.648;2024-01-07T03:44:05;3.70;64.70
81726;DHT22;71135;16.738;-14.648;2024-01-07T03:46:34;3.70;64.60
81726;DHT22;71135;16.738;-14.648;2024-01-07T03:49:07;3.70;64.70
81726;DHT22;71135;16.738;-14.648;2024-01-07T03:51:36;3.70;64.70
81726;DHT22;71135;16.738;-14.648;2024-01-07T03:54:05;3.60;64.60
81726;DHT22;71135;16.738;-14.648;2024-01-07T03:56:34;3.60;64.70
81726;DHT22;71135;16.738;-14.648;2024-01-07T03:59:06;3.60;64.70
81726;DHT22;71135;16.738;-14.648;2024-01-07T04:01:35;3.60;64.60
81726;DHT22;71135;16.738;-14.648;2024-01-07T04:04:05;3.60;64.60
81726;DHT22;71135;16.738;-14.648;2024-01-07T04:06:34;3.60;64.50
81726;DHT22;71135;16.738;-14.648;2024-01-07T04:09:03;3.50;64.50
81726;DHT22;71135;16.738;-14.648;2024-01-07T04:11:32;3.50;64.70
81726;DHT22;71135;16.738;-14.648;2024-01-07T04:14:01;3.60;64.60
81726;DHT22;71135;16.738;-14.648;2024-01-07T04:16:33;3.60;64.60
81726;DHT22;71135;16.738;-14.648;2024-01-07T04:19:02;3.60;64.60
81726;DHT22;71135;16.738;-14.648;2024-01-07T04:21:31;3.60;64.60
81726;DHT22;71135;16.738;-14.648;2024-01-07T04:24:02;3.60;64.60
81726;DHT22;71135;16.738;-14.648;2024-01-07T04:26:31;3.60;64.50
81726;DHT22;71135;16.738;-14.648;2024-01-07T04:29:00;3.60;64.50
81726;DHT22;71135;16.738;-14.648;2024-01-07T04:31:29;3.60;64.30
81726;DHT22;71135;16.738;-14.648;2024-01-07T04:34:01;3.60;64.30
81726;DHT22;71135;16.738;-14.648;2024-01-07T04:36:30;3.50;64.40
81726;DHT22;71135;16.738;-14.648;2024-01-07T04:38:59;3.50;64.40
81726;DHT22;71135;16.738;-14.648;2024-01-07T04:41:28;3.60;64.40
81726;DHT22;71135;16.738;-14.648;2024-01-07T04:43:57;3.60;64.40
81726;DHT22;71135;16.738;-14.648;2024-01-07T04:46:26;3.60;64.20
81726;DHT22;71135;16.738;-14.648;2024-01-07T04:48:56;3.60;64.30
81726;DHT22;71135;16.738;-14.648;2024-01-07T04:51:27;3.60;64.30
81726;DHT22;71135;16.738;-14.648;2024-01-07T04:53:57;3.70;64.40
81726;DHT22;71135;16.738;-14.648;2024-01-07T04:56:26;3.70;64.30
81726;DHT22;71135;16.738;-14.648;2024-01-07T04:58:55;3.70;64.20
81726;DHT22;71135;16.738;-14.648;2024-01-07T05:01:24;3.80;64.20
81726;DHT22;71135;16.738;-14.648;2024-01-07T05:03:53;3.80;64.00
81726;DHT22;71135;16.738;-14.648;2024-01-07T05:06:23;3.70;64.00
81726;DHT22;71135;16.738;-14.648;2024-01-07T05:08:54;3.70;64.00
81726;DHT22;71135;16.738;-14.648;2024-01-07T05:11:23;3.70;64.00
81726;DHT22;71135;16.738;-14.648;2024-01-07T05:13:55;3.70;64.10
81726;DHT22;71135;16.738;-14.648;2024-01-07T05:16:25;3.70;64.00
81726;DHT22;71135;16.738;-14.648;2024-01-07T05:18:54;3.70;64.00
81726;DHT22;71135;16.738;-14.648;2024-01-07T05:21:23;3.70;64.00
81726;DHT22;71135;16.738;-14.648;2024-01-07T05:23:55;3.70;63.90
81726;DHT22;71135;16.738;-14.648;2024-01-07T05:26:24;3.70;63.90
81726;DHT22;71135;16.738;-14.648;2024-01-07T05:28:53;3.60;63.90
81726;DHT22;71135;16.738;-14.648;2024-01-07T05:31:22;3.60;63.70
81726;DHT22;71135;16.738;-14.648;2024-01-07T05:33:51;3.60;63.80
81726;DHT22;71135;16.738;-14.648;2024-01-07T05:36:20;3.60;63.80
81726;DHT22;71135;16.738;-14.648;2024-01-07T05:38:50;3.60;63.80
81726;DHT22;71135;16.738;-14.648;2024-01-07T05:41:21;3.60;63.70
81726;DHT22;71135;16.738;-14.648;2024-01-07T05:43:53;3.60;63.70
81726;DHT22;71135;16.738;-14.648;2024-01-07T05:46:22;3.50;63.70
81726;DHT22;71135;16.738;-14.648;2024-01-07T05:48:52;3.50;63.70
81726;DHT22;71135;16.738;-14.648;2024-01-07T05:51:22;3.60;63.70
81726;DHT22;71135;16.738;-14.648;2024-01-07T05:53:51;3.60;63.70
81726;DHT22;71135;16.738;-14.648;2024-01-07T05:56:23;3.50;63.50
81726;DHT22;71135;16.738;-14.648;2024-01-07T05:58:52;3.50;63.60
81726;DHT22;71135;16.738;-14.648;2024-01-07T06:01:22;3.50;63.60
81726;DHT22;71135;16.738;-14.648;2024-01-07T06:03:51;3.50;63.60
81726;DHT22;71135;16.738;-14.648;2024-01-07T06:06:20;3.50;63.60
81726;DHT22;71135;16.738;-14.648;2024-01-07T06:08:49;3.60;63.60
81726;DHT22;71135;16.738;-14.648;2024-01-07T06:11:19;3.50;63.50
81726;DHT22;71135;16.738;-14.648;2024-01-07T06:13:51;3.50;63.30
81726;DHT22;71135;16.738;-14.648;2024-01-07T06:16:20;3.50;63.10
81726;DHT22;71135;16.738;-14.648;2024-01-07T06:18:49;3.50;63.30
81726;DHT22;71135;16.738;-14.648;2024-01-07T06:21:18;3.40;63.40
81726;DHT22;71135;16.738;-14.648;2024-01-07T06:23:48;3.40;63.40
81726;DHT22;71135;16.738;-14.648;2024-01-07T06:26:17;3.50;63.40
81726;DHT22;71135;16.738;-14.648;2024-01-07T06:28:46;3.40;63.40
81726;DHT22;71135;16.738;-14.648;2024-01-07T06:31:18;3.40;63.30
81726;DHT22;71135;16.738;-14.648;2024-01-07T06:33:48;3.40;63.30
81726;DHT22;71135;16.738;-14.648;2024-01-07T06:36:17;3.40;63.30
81726;DHT22;71135;16.738;-14.648;2024-01-07T06:38:46;3.40;63.30
81726;DHT22;71135;16.738;-14.648;2024-01-07T06:41:15;3.40;63.20
81726;DHT22;71135;16.738;-14.648;2024-01-07T06:43:44;3.40;63.20
81726;DHT22;71135;16.738;-14.648;2024-01-07T06:46:18;3.30;63.20
81726;DHT22;71135;16.738;-14.648;2024-01-07T06:48:47;3.30;63.10
81726;DHT22;71135;16.738;-14.648;2024-01-07T06:51:17;3.30;63.00
81726;DHT22;71135;16.738;-14.648;2024-01-07T06:53:46;3.30;63.10
81726;DHT22;71135;16.738;-14.648;2024-01-07T06:56:16;3.30;62.90
81726;DHT22;71135;16.738;-14.648;2024-01-07T06:58:45;3.20;62.70
81726;DHT22;71135;16.738;-14.648;2024-01-07T07:01:20;3.10;62.80
81726;DHT22;71135;16.738;-14.648;2024-01-07T07:03:50;3.10;62.90
81726;DHT22;71135;16.738;-14.648;2024-01-07T07:06:19;3.10;62.90
81726;DHT22;71135;16.738;-14.648;2024-01-07T07:08:49;3.10;62.80
81726;DHT22;71135;16.738;-14.648;2024-01-07T07:11:18;3.10;62.90
81726;DHT22;71135;16.738;-14.648;2024-01-07T07:13:47;3.10;62.70
81726;DHT22;71135;16.738;-14.648;2024-01-07T07:16:16;3.10;62.60
81726;DHT22;71135;16.738;-14.648;2024-01-07T07:18:48;3.10;62.70
81726;DHT22;71135;16.738;-14.648;2024-01-07T07:21:17;3.10;62.80
81726;DHT22;71135;16.738;-14.648;2024-01-07T07:23:46;3.10;62.70
81726;DHT22;71135;16.738;-14.648;2024-01-07T07:26:15;3.10;62.60
81726;DHT22;71135;16.738;-14.648;2024-01-07T07:28:44;3.10;62.60
81726;DHT22;71135;16.738;-14.648;2024-01-07T07:31:14;3.10;62.30
81726;DHT22;71135;16.738;-14.648;2024-01-07T07:33:43;3.10;62.20
81726;DHT22;71135;16.738;-14.648;2024-01-07T07:36:17;3.10;61.90
81726;DHT22;71135;16.738;-14.648;2024-01-07T07:38:46;3.10;62.00
81726;DHT22;71135;16.738;-14.648;2024-01-07T07:41:17;3.10;62.00
81726;DHT22;71135;16.738;-14.648;2024-01-07T07:43:46;3.00;61.90
81726;DHT22;71135;16.738;-14.648;2024-01-07T07:46:15;3.00;62.00
81726;DHT22;71135;16.738;-14.648;2024-01-07T07:48:44;3.00;61.90
81726;DHT22;71135;16.738;-14.648;2024-01-07T07:51:17;3.10;61.90
81726;DHT22;71135;16.738;-14.648;2024-01-07T07:53:46;3.00;61.70
81726;DHT22;71135;16.738;-14.648;2024-01-07T07:56:15;3.00;61.40
81726;DHT22;71135;16.738;-14.648;2024-01-07T07:58:44;3.00;61.50
81726;DHT22;71135;16.738;-14.648;2024-01-07T08:01:14;3.00;61.50
81726;DHT22;71135;16.738;-14.648;2024-01-07T08:03:44;3.00;61.50
81726;DHT22;71135;16.738;-14.648;2024-01-07T08:06:16;3.00;61.40
81726;DHT22;71135;16.738;-14.648;2024-01-07T08:08:45;3.00;61.50
81726;DHT22;71135;16.738;-14.648;2024-01-07T08:11:14;3.00;61.50
81726;DHT22;71135;16.738;-14.648;2024-01-07T08:13:44;3.00;61.50
81726;DHT22;71135;16.738;-14.648;2024-01-07T08:16:13;3.00;61.40
81726;DHT22;71135;16.738;-14.648;2024-01-07T08:18:43;3.00;61.40
81726;DHT22;71135;16.738;-14.648;2024-01-07T08:21:12;3.00;61.30
81726;DHT22;71135;16.738;-14.648;2024-01-07T08:23:43;3.00;61.40
81726;DHT22;71135;16.738;-14.648;2024-01-07T08:26:14;3.00;61.50
81726;DHT22;71135;16.738;-14.648;2024-01-07T08:28:46;3.00;61.10
81726;DHT22;71135;16.738;-14.648;2024-01-07T08:31:15;3.00;61.20
81726;DHT22;71135;16.738;-14.648;2024-01-07T08:33:45;3.00;61.20
81726;DHT22;71135;16.738;-14.648;2024-01-07T08:36:14;3.00;61.30
81726;DHT22;71135;16.738;-14.648;2024-01-07T08:38:46;3.00;61.20
81726;DHT22;71135;16.738;-14.648;2024-01-07T08:41:15;3.10;61.30
81726;DHT22;71135;16.738;-14.648;2024-01-07T08:43:45;3.10;61.10
81726;DHT22;71135;16.738;-14.648;2024-01-07T08:46:14;3.10;61.10
81726;DHT22;71135;16.738;-14.648;2024-01-07T08:48:41;3.10;61.10
81726;DHT22;71135;16.738;-14.648;2024-01-07T08:51:10;3.10;61.20
81726;DHT22;71135;16.738;-14.648;2024-01-07T08:53:41;3.10;61.00
81726;DHT22;71135;16.738;-14.648;2024-01-07T08:56:15;3.10;61.00
81726;DHT22;71135;16.738;-14.648;2024-01-07T08:58:44;3.10;61.00
81726;DHT22;71135;16.738;-14.648;2024-01-07T09:01:13;3.10;60.90
81726;DHT22;71135;16.738;-14.648;2024-01-07T09:03:43;3.10;60.90
81726;DHT22;71135;16.738;-14.648;2024-01-07T09:06:12;3.10;61.10
81726;DHT22;71135;16.738;-14.648;2024-01-07T09:08:41;3.10;61.10
81726;DHT22;71135;16.738;-14.648;2024-01-07T09:11:10;3.20;61.10
81726;DHT22;71135;16.738;-14.648;2024-01-07T09:13:42;3.20;61.10
81726;DHT22;71135;16.738;-14.648;2024-01-07T09:16:14;3.30;60.90
81726;DHT22;71135;16.738;-14.648;2024-01-07T09:18:43;3.30;60.90
81726;DHT22;71135;16.738;-14.648;2024-01-07T09:21:12;3.30;60.90
81726;DHT22;71135;16.738;-14.648;2024-01-07T09:23:41;3.30;60.80
81726;DHT22;71135;16.738;-14.648;2024-01-07T09:26:12;3.30;60.80
81726;DHT22;71135;16.738;-14.648;2024-01-07T09:28:44;3.30;60.80
81726;DHT22;71135;16.738;-14.648;2024-01-07T09:31:13;3.30;60.70
81726;DHT22;71135;16.738;-14.648;2024-01-07T09:33:42;3.30;60.50
81726;DHT22;71135;16.738;-14.648;2024-01-07T09:36:11;3.30;60.40
81726;DHT22;71135;16.738;-14.648;2024-01-07T09:38:42;3.30;60.20
81726;DHT22;71135;16.738;-14.648;2024-01-07T09:41:11;3.30;60.30
81726;DHT22;71135;16.738;-14.648;2024-01-07T09:43:43;3.30;60.50
81726;DHT22;71135;16.738;-14.648;2024-01-07T09:46:13;3.50;60.10
81726;DHT22;71135;16.738;-14.648;2024-01-07T09:48:43;3.50;60.00
81726;DHT22;71135;16.738;-14.648;2024-01-07T09:51:12;3.50;59.00
81726;DHT22;71135;16.738;-14.648;2024-01-07T09:53:43;3.50;59.30
81726;DHT22;71135;16.738;-14.648;2024-01-07T09:56:20;3.50;59.50
81726;DHT22;71135;16.738;-14.648;2024-01-07T09:58:52;3.60;59.40
81726;DHT22;71135;16.738;-14.648;2024-01-07T10:01:21;3.60;59.40
81726;DHT22;71135;16.738;-14.648;2024-01-07T10:03:50;3.70;59.40
81726;DHT22;71135;16.738;-14.648;2024-01-07T10:06:20;3.80;59.30
81726;DHT22;71135;16.738;-14.648;2024-01-07T10:08:49;3.90;59.10
81726;DHT22;71135;16.738;-14.648;2024-01-07T10:11:18;3.90;58.90
81726;DHT22;71135;16.738;-14.648;2024-01-07T10:13:53;3.90;58.60
81726;DHT22;71135;16.738;-14.648;2024-01-07T10:16:22;3.90;58.20
81726;DHT22;71135;16.738;-14.648;2024-01-07T10:18:51;4.00;58.30
81726;DHT22;71135;16.738;-14.648;2024-01-07T10:21:20;4.00;58.20
81726;DHT22;71135;16.738;-14.648;2024-01-07T10:23:50;4.00;58.40
81726;DHT22;71135;16.738;-14.648;2024-01-07T10:26:21;4.00;58.20
81726;DHT22;71135;16.738;-14.648;2024-01-07T10:28:52;4.00;58.00
81726;DHT22;71135;16.738;-14.648;2024-01-07T10:31:22;4.00;57.90
81726;DHT22;71135;16.738;-14.648;2024-01-07T10:33:51;3.90;57.80
81726;DHT22;71135;16.738;-14.648;2024-01-07T10:36:21;3.90;57.80
81726;DHT22;71135;16.738;-14.648;2024-01-07T10:38:51;3.90;58.00
81726;DHT22;71135;16.738;-14.648;2024-01-07T10:41:21;3.90;57.80
81726;DHT22;71135;16.738;-14.648;2024-01-07T10:43:53;3.90;57.80
81726;DHT22;71135;16.738;-14.648;2024-01-07T10:46:22;3.90;57.80
81726;DHT22;71135;16.738;-14.648;2024-01-07T10:48:55;3.80;57.70
81726;DHT22;71135;16.738;-14.648;2024-01-07T10:51:28;3.90;57.90
81726;DHT22;71135;16.738;-14.648;2024-01-07T10:53:57;3.80;57.90
81726;DHT22;71135;16.738;-14.648;2024-01-07T10:56:33;3.90;57.70
81726;DHT22;71135;16.738;-14.648;2024-01-07T10:59:06;3.80;57.50
81726;DHT22;71135;16.738;-14.648;2024-01-07T11:01:35;3.80;57.20
81726;DHT22;71135;16.738;-14.648;2024-01-07T11:04:13;3.70;57.50
81726;DHT22;71135;16.738;-14.648;2024-01-07T11:06:57;3.70;57.70
81726;DHT22;71135;16.738;-14.648;2024-01-07T11:09:33;3.70;57.60
81726;DHT22;71135;16.738;-14.648;2024-01-07T11:12:14;3.70;57.50
81726;DHT22;71135;16.738;-14.648;2024-01-07T11:14:48;3.70;57.60
81726;DHT22;71135;16.738;-14.648;2024-01-07T11:17:39;3.70;57.70
81726;DHT22;71135;16.738;-14.648;2024-01-07T11:20:21;3.80;57.40
81726;DHT22;71135;16.738;-14.648;2024-01-07T11:25:43;3.70;57.50
81726;DHT22;71135;16.738;-14.648;2024-01-07T11:28:12;3.80;57.60
81726;DHT22;71135;16.738;-14.648;2024-01-07T11:30:45;3.80;57.50
81726;DHT22;71135;16.738;-14.648;2024-01-07T11:33:15;3.90;57.50
81726;DHT22;71135;16.738;-14.648;2024-01-07T11:35:55;3.90;57.50
81726;DHT22;71135;16.738;-14.648;2024-01-07T11:38:25;3.90;57.60
81726;DHT22;71135;16.738;-14.648;2024-01-07T11:40:54;3.90;57.40
81726;DHT22;71135;16.738;-14.648;2024-01-07T11:43:25;3.90;57.30
81726;DHT22;71135;16.738;-14.648;2024-01-07T11:45:58;4.00;57.30
81726;DHT22;71135;16.738;-14.648;2024-01-07T11:48:27;4.00;57.20
81726;DHT22;71135;16.738;-14.648;2024-01-07T11:50:56;4.10;56.60
81726;DHT22;71135;16.738;-14.648;2024-01-07T11:53:25;4.10;56.40
81726;DHT22;71135;16.738;-14.648;2024-01-07T11:55:54;4.10;56.50
81726;DHT22;71135;16.738;-14.648;2024-01-07T11:58:23;4.10;56.50
81726;DHT22;71135;16.738;-14.648;2024-01-07T12:00:53;4.20;56.50
81726;DHT22;71135;16.738;-14.648;2024-01-07T12:03:25;4.20;56.50
81726;DHT22;71135;16.738;-14.648;2024-01-07T12:05:55;4.20;56.20
81726;DHT22;71135;16.738;-14.648;2024-01-07T12:08:24;4.30;56.20
81726;DHT22;71135;16.738;-14.648;2024-01-07T12:10:54;4.30;56.40
81726;DHT22;71135;16.738;-14.648;2024-01-07T12:13:24;4.30;55.70
81726;DHT22;71135;16.738;-14.648;2024-01-07T12:18:46;4.30;55.90
81726;DHT22;71135;16.738;-14.648;2024-01-07T12:21:19;4.30;55.90
81726;DHT22;71135;16.738;-14.648;2024-01-07T12:23:49;4.30;55.60
81726;DHT22;71135;16.738;-14.648;2024-01-07T12:26:20;4.20;55.60
81726;DHT22;71135;16.738;-14.648;2024-01-07T12:29:00;4.20;55.50
81726;DHT22;71135;16.738;-14.648;2024-01-07T12:31:31;4.10;55.50
81726;DHT22;71135;16.738;-14.648;2024-01-07T12:34:03;4.10;55.70
81726;DHT22;71135;16.738;-14.648;2024-01-07T12:36:33;4.10;55.60
81726;DHT22;71135;16.738;-14.648;2024-01-07T12:39:19;4.10;55.60
81726;DHT22;71135;16.738;-14.648;2024-01-07T12:41:48;4.10;55.50
81726;DHT22;71135;16.738;-14.648;2024-01-07T12:44:18;4.00;55.50
81726;DHT22;71135;16.738;-14.648;2024-01-07T12:46:47;4.00;55.50
81726;DHT22;71135;16.738;-14.648;2024-01-07T12:49:20;4.00;55.40
81726;DHT22;71135;16.738;-14.648;2024-01-07T12:51:49;4.00;55.20
81726;DHT22;71135;16.738;-14.648;2024-01-07T12:54:19;4.00;55.40
81726;DHT22;71135;16.738;-14.648;2024-01-07T12:56:49;4.00;55.10
81726;DHT22;71135;16.738;-14.648;2024-01-07T12:59:21;4.00;55.20
81726;DHT22;71135;16.738;-14.648;2024-01-07T13:01:50;4.00;55.20
81726;DHT22;71135;16.738;-14.648;2024-01-07T13:04:22;4.00;55.10
81726;DHT22;71135;16.738;-14.648;2024-01-07T13:06:51;4.00;55.20
81726;DHT22;71135;16.738;-14.648;2024-01-07T13:09:20;4.00;55.30
81726;DHT22;71135;16.738;-14.648;2024-01-07T13:11:50;4.10;55.20
81726;DHT22;71135;16.738;-14.648;2024-01-07T13:14:19;4.10;55.20
81726;DHT22;71135;16.738;-14.648;2024-01-07T13:16:48;4.10;55.40
81726;DHT22;71135;16.738;-14.648;2024-01-07T13:19:18;4.10;55.30
81726;DHT22;71135;16.738;-14.648;2024-01-07T13:21:49;4.10;55.20
81726;DHT22;71135;16.738;-14.648;2024-01-07T13:24:21;4.10;55.10
81726;DHT22;71135;16.738;-14.648;2024-01-07T13:26:50;4.10;55.00
81726;DHT22;71135;16.738;-14.648;2024-01-07T13:29:19;4.10;54.80
81726;DHT22;71135;16.738;-14.648;2024-01-07T13:31:49;4.10;54.90
81726;DHT22;71135;16.738;-14.648;2024-01-07T13:34:18;4.10;54.80
81726;DHT22;71135;16.738;-14.648;2024-01-07T13:36:50;4.00;54.80
81726;DHT22;71135;16.738;-14.648;2024-01-07T13:39:19;4.00;54.70
81726;DHT22;71135;16.738;-14.648;2024-01-07T13:41:50;4.00;54.90
81726;DHT22;71135;16.738;-14.648;2024-01-07T13:44:20;3.90;55.00
81726;DHT22;71135;16.738;-14.648;2024-01-07T13:46:49;3.90;54.90
81726;DHT22;71135;16.738;-14.648;2024-01-07T13:49:19;3.90;54.80
81726;DHT22;71135;16.738;-14.648;2024-01-07T13:51:51;3.90;54.80
81726;DHT22;71135;16.738;-14.648;2024-01-07T13:54:21;3.90;54.70
81726;DHT22;71135;16.738;-14.648;2024-01-07T13:56:50;3.90;54.70
81726;DHT22;71135;16.738;-14.648;2024-01-07T13:59:20;3.80;54.70
81726;DHT22;71135;16.738;-14.648;2024-01-07T14:01:49;3.80;54.60
81726;DHT22;71135;16.738;-14.648;2024-01-07T14:04:18;3.70;54.60
81726;DHT22;71135;16.738;-14.648;2024-01-07T14:06:53;3.70;54.80
81726;DHT22;71135;16.738;-14.648;2024-01-07T14:09:23;3.70;54.80
81726;DHT22;71135;16.738;-14.648;2024-01-07T14:11:52;3.70;54.80
81726;DHT22;71135;16.738;-14.648;2024-01-07T14:14:27;3.60;55.00
81726;DHT22;71135;16.738;-14.648;2024-01-07T14:17:18;3.70;55.10
81726;DHT22;71135;16.738;-14.648;2024-01-07T14:19:48;3.70;55.10
81726;DHT22;71135;16.738;-14.648;2024-01-07T14:22:41;3.70;55.10
81726;DHT22;71135;16.738;-14.648;2024-01-07T14:25:10;3.70;55.20
81726;DHT22;71135;16.738;-14.648;2024-01-07T14:27:40;3.70;55.20
81726;DHT22;71135;16.738;-14.648;2024-01-07T14:30:12;3.70;55.30
81726;DHT22;71135;16.738;-14.648;2024-01-07T14:32:42;3.70;55.30
81726;DHT22;71135;16.738;-14.648;2024-01-07T14:35:11;3.80;55.30
81726;DHT22;71135;16.738;-14.648;2024-01-07T14:37:43;3.80;55.40
81726;DHT22;71135;16.738;-14.648;2024-01-07T14:40:13;3.80;55.40
81726;DHT22;71135;16.738;-14.648;2024-01-07T14:42:42;3.90;55.50
81726;DHT22;71135;16.738;-14.648;2024-01-07T14:45:11;3.90;55.30
81726;DHT22;71135;16.738;-14.648;2024-01-07T14:47:40;3.90;55.50
81726;DHT22;71135;16.738;-14.648;2024-01-07T14:50:09;3.90;55.50
81726;DHT22;71135;16.738;-14.648;2024-01-07T14:52:38;3.90;55.50
81726;DHT22;71135;16.738;-14.648;2024-01-07T14:55:10;3.90;55.50
81726;DHT22;71135;16.738;-14.648;2024-01-07T14:57:40;3.90;55.60
81726;DHT22;71135;16.738;-14.648;2024-01-07T15:00:09;4.00;55.60
81726;DHT22;71135;16.738;-14.648;2024-01-07T15:02:40;4.00;55.50
81726;DHT22;71135;16.738;-14.648;2024-01-07T15:05:09;4.00;55.50
81726;DHT22;71135;16.738;-14.648;2024-01-07T15:07:38;4.00;55.60
81726;DHT22;71135;16.738;-14.648;2024-01-07T15:10:10;4.00;55.50
81726;DHT22;71135;16.738;-14.648;2024-01-07T15:12:39;4.00;55.60
81726;DHT22;71135;16.738;-14.648;2024-01-07T15:15:09;4.00;55.70
81726;DHT22;71135;16.738;-14.648;2024-01-07T15:17:38;4.00;55.70
81726;DHT22;71135;16.738;-14.648;2024-01-07T15:20:09;4.00;55.70
81726;DHT22;71135;16.738;-14.648;2024-01-07T15:22:38;4.10;55.80
81726;DHT22;71135;16.738;-14.648;2024-01-07T15:25:11;4.00;55.70
81726;DHT22;71135;16.738;-14.648;2024-01-07T15:27:40;4.00;55.70
81726;DHT22;71135;16.738;-14.648;2024-01-07T15:30:11;4.00;55.80
81726;DHT22;71135;16.738;-14.648;2024-01-07T15:32:40;3.90;55.80
81726;DHT22;71135;16.738;-14.648;2024-01-07T15:35:09;3.90;55.80
81726;DHT22;71135;16.738;-14.648;2024-01-07T15:37:39;3.90;55.90
81726;DHT22;71135;16.738;-14.648;2024-01-07T15:40:11;3.80;56.00
81726;DHT22;71135;16.738;-14.648;2024-01-07T15:42:40;3.80;56.20
81726;DHT22;71135;16.738;-14.648;2024-01-07T15:45:09;3.70;56.20